URO4PV EIDW-EBLG
Flight info
| Callsign | URO4PV |
|---|---|
| Flight time | N/A |
| Altitude | 33000 |
| Route | ENDEQ3J ENDEQ Q36 EPOXI L15 PIXUP/N0474F370 L15 BIG Q70 VABIK/N0416F230 Q70 KOK |
| Aircraft | A346/H-SDE2E3FGHIJ3J4J5M1RWXY/LB1D1 |
Departure
| Time | 2026-05-07 20:13 |
|---|---|
| Airport | Dublin Airport (EIDW) |
Arrival
| Time | N/A |
|---|---|
| Airport | Liège Airport (EBLG) |
| Time | Latitude | Longitude | Altitude | Speed | Heading |
|---|---|---|---|---|---|
| 2026-05-07 19:43 | 53.42572 | -6.25998 | 219 ft | 0 kts | 5° |
| 2026-05-07 20:01 | 53.42571 | -6.25998 | 219 ft | 0 kts | 5° |
| 2026-05-07 20:01 | 53.42568 | -6.25999 | 219 ft | 0 kts | 5° |
| 2026-05-07 20:02 | 53.42544 | -6.26003 | 224 ft | 0 kts | 5° |
| 2026-05-07 20:02 | 53.42518 | -6.26007 | 227 ft | 0 kts | 5° |
| 2026-05-07 20:02 | 53.42491 | -6.26011 | 225 ft | 0 kts | 5° |
| 2026-05-07 20:02 | 53.42472 | -6.26014 | 225 ft | 0 kts | 5° |
| 2026-05-07 20:03 | 53.42473 | -6.26014 | 225 ft | 0 kts | 5° |
| 2026-05-07 20:05 | 53.42476 | -6.26013 | 226 ft | 1 kts | 7° |
| 2026-05-07 20:06 | 53.42479 | -6.26011 | 226 ft | 0 kts | 29° |
| 2026-05-07 20:06 | 53.42485 | -6.25998 | 224 ft | 2 kts | 74° |
| 2026-05-07 20:06 | 53.42485 | -6.25943 | 222 ft | 7 kts | 91° |
| 2026-05-07 20:06 | 53.42484 | -6.25841 | 219 ft | 10 kts | 84° |
| 2026-05-07 20:07 | 53.42526 | -6.25727 | 224 ft | 13 kts | 47° |
| 2026-05-07 20:07 | 53.42550 | -6.25685 | 224 ft | 0 kts | 47° |
| 2026-05-07 20:07 | 53.42559 | -6.25669 | 227 ft | 4 kts | 47° |
| 2026-05-07 20:07 | 53.42585 | -6.25621 | 224 ft | 7 kts | 47° |
| 2026-05-07 20:08 | 53.42630 | -6.25539 | 224 ft | 12 kts | 47° |
| 2026-05-07 20:08 | 53.42714 | -6.25505 | 223 ft | 18 kts | 349° |
| 2026-05-07 20:08 | 53.42870 | -6.25607 | 227 ft | 30 kts | 337° |
| 2026-05-07 20:08 | 53.43095 | -6.25765 | 225 ft | 37 kts | 337° |
| 2026-05-07 20:09 | 53.43286 | -6.25897 | 226 ft | 18 kts | 347° |
| 2026-05-07 20:09 | 53.43384 | -6.25782 | 225 ft | 20 kts | 62° |
| 2026-05-07 20:09 | 53.43407 | -6.25544 | 219 ft | 23 kts | 94° |
| 2026-05-07 20:10 | 53.43372 | -6.24968 | 224 ft | 27 kts | 97° |
| 2026-05-07 20:10 | 53.43359 | -6.24646 | 226 ft | 28 kts | 95° |
| 2026-05-07 20:10 | 53.43338 | -6.24313 | 219 ft | 29 kts | 95° |
| 2026-05-07 20:10 | 53.43321 | -6.23984 | 219 ft | 22 kts | 91° |
| 2026-05-07 20:11 | 53.43367 | -6.23869 | 224 ft | 0 kts | 9° |
| 2026-05-07 20:11 | 53.43372 | -6.23867 | 224 ft | 2 kts | 9° |
| 2026-05-07 20:11 | 53.43416 | -6.23856 | 219 ft | 14 kts | 9° |
| 2026-05-07 20:12 | 53.43490 | -6.23963 | 224 ft | 13 kts | 269° |
| 2026-05-07 20:12 | 53.43490 | -6.24042 | 224 ft | 14 kts | 274° |
| 2026-05-07 20:12 | 53.43522 | -6.24706 | 223 ft | 99 kts | 275° |
| 2026-05-07 20:12 | 53.43616 | -6.26315 | 271 ft | 168 kts | 275° |
| 2026-05-07 20:13 | 53.43754 | -6.28341 | 1055 ft | 178 kts | 274° |
| 2026-05-07 20:13 | 53.44000 | -6.30408 | 2143 ft | 183 kts | 289° |
| 2026-05-07 20:13 | 53.44760 | -6.32141 | 2939 ft | 196 kts | 311° |
| 2026-05-07 20:13 | 53.45770 | -6.33825 | 3589 ft | 211 kts | 313° |
| 2026-05-07 20:14 | 53.47053 | -6.35168 | 4284 ft | 230 kts | 343° |
| 2026-05-07 20:14 | 53.48679 | -6.35283 | 5182 ft | 237 kts | 1° |
| 2026-05-07 20:14 | 53.50326 | -6.35031 | 6198 ft | 241 kts | 13° |
| 2026-05-07 20:14 | 53.51803 | -6.33620 | 6871 ft | 256 kts | 50° |
| 2026-05-07 20:15 | 53.52564 | -6.30861 | 7480 ft | 271 kts | 85° |
| 2026-05-07 20:15 | 53.52469 | -6.27631 | 8197 ft | 282 kts | 99° |
| 2026-05-07 20:15 | 53.52174 | -6.24336 | 9105 ft | 287 kts | 101° |
| 2026-05-07 20:15 | 53.51869 | -6.20997 | 10070 ft | 291 kts | 100° |
| 2026-05-07 20:16 | 53.51572 | -6.17561 | 10784 ft | 304 kts | 100° |
| 2026-05-07 20:16 | 53.51278 | -6.13944 | 11302 ft | 321 kts | 99° |
| 2026-05-07 20:16 | 53.50978 | -6.10107 | 11788 ft | 340 kts | 99° |
| 2026-05-07 20:16 | 53.50669 | -6.06041 | 12262 ft | 359 kts | 99° |
| 2026-05-07 20:17 | 53.50346 | -6.01766 | 12737 ft | 377 kts | 99° |
| 2026-05-07 20:17 | 53.50008 | -5.97281 | 13224 ft | 394 kts | 99° |
| 2026-05-07 20:17 | 53.49661 | -5.92635 | 13948 ft | 403 kts | 99° |
| 2026-05-07 20:17 | 53.49308 | -5.87925 | 14757 ft | 407 kts | 99° |
| 2026-05-07 20:18 | 53.48956 | -5.83246 | 15574 ft | 411 kts | 99° |
| 2026-05-07 20:18 | 53.48592 | -5.78449 | 16389 ft | 415 kts | 99° |
| 2026-05-07 20:18 | 53.48222 | -5.73603 | 17196 ft | 420 kts | 99° |
| 2026-05-07 20:18 | 53.47846 | -5.68710 | 17980 ft | 424 kts | 99° |
| 2026-05-07 20:19 | 53.47464 | -5.63765 | 18686 ft | 429 kts | 100° |
| 2026-05-07 20:19 | 53.47075 | -5.58763 | 19362 ft | 433 kts | 100° |
| 2026-05-07 20:19 | 53.46680 | -5.53714 | 20052 ft | 438 kts | 100° |
| 2026-05-07 20:19 | 53.46279 | -5.48613 | 20731 ft | 442 kts | 100° |
| 2026-05-07 20:20 | 53.45873 | -5.43466 | 21407 ft | 446 kts | 100° |
| 2026-05-07 20:20 | 53.45460 | -5.38278 | 22075 ft | 450 kts | 100° |
| 2026-05-07 20:20 | 53.45042 | -5.33037 | 22728 ft | 454 kts | 100° |
| 2026-05-07 20:20 | 53.44616 | -5.27754 | 23390 ft | 458 kts | 100° |
| 2026-05-07 20:21 | 53.44185 | -5.22425 | 23942 ft | 463 kts | 100° |
| 2026-05-07 20:21 | 53.43787 | -5.17029 | 24489 ft | 467 kts | 98° |
| 2026-05-07 20:21 | 53.43547 | -5.11566 | 25049 ft | 471 kts | 96° |
| 2026-05-07 20:21 | 53.43373 | -5.06140 | 25609 ft | 474 kts | 95° |
| 2026-05-07 20:22 | 53.43203 | -5.00511 | 26166 ft | 477 kts | 95° |
| 2026-05-07 20:22 | 53.43034 | -4.94993 | 26693 ft | 480 kts | 95° |
| 2026-05-07 20:22 | 53.42854 | -4.89364 | 27232 ft | 484 kts | 96° |
| 2026-05-07 20:22 | 53.42668 | -4.83697 | 27746 ft | 487 kts | 96° |
| 2026-05-07 20:23 | 53.42478 | -4.78000 | 28266 ft | 490 kts | 96° |
| 2026-05-07 20:23 | 53.42285 | -4.72283 | 28910 ft | 490 kts | 96° |
| 2026-05-07 20:23 | 53.42092 | -4.66586 | 29705 ft | 487 kts | 96° |
| 2026-05-07 20:23 | 53.41895 | -4.60917 | 30452 ft | 484 kts | 96° |
| 2026-05-07 20:24 | 53.41698 | -4.55286 | 31125 ft | 481 kts | 96° |
| 2026-05-07 20:24 | 53.41502 | -4.49742 | 31753 ft | 480 kts | 96° |
| 2026-05-07 20:24 | 53.41301 | -4.44153 | 32349 ft | 479 kts | 96° |
| 2026-05-07 20:24 | 53.41098 | -4.38567 | 32937 ft | 479 kts | 96° |
| 2026-05-07 20:25 | 53.40892 | -4.32995 | 33521 ft | 478 kts | 96° |
| 2026-05-07 20:25 | 53.40685 | -4.27440 | 34098 ft | 477 kts | 96° |
| 2026-05-07 20:25 | 53.40474 | -4.21888 | 34571 ft | 476 kts | 96° |
| 2026-05-07 20:25 | 53.40333 | -4.18209 | 34855 ft | 476 kts | 96° |